RCR weather

Fulton County Airport
Rochester, Indiana, United States

Public forecast

Using degrees Fahrenheit for public forecast. Weather courtesy of forecast.io.

Current aviation weather report (METAR) for Fulton County Airport

Retrieved 2020/01/29 03:15 UTC (1 hour ago):

KRCR 290315Z AUTO 00000KT 10SM BKN024 00/M01 A3012 RMK AO2

Closest aviation forecast (TAF) to Fulton County Airport

Closest forecast is Grissom Air Reserve Base, 25.1 nm (46.5 km) S. Retrieved 2020-01-29 03:16 UTC (1 hour ago):

TAF KGUS 290300Z 2903/3009 VRB06KT 9999 OVC020 620202 QNH3011INS BECMG 2905/2906 VRB06KT 8000 BR OVC007 620073 QNH3012INS BECMG 2914/2915 06006KT 9999 NSW SCT020 OVC025 620251 QNH3014INS BECMG 3005/3006 VRB06KT 8000 BR BKN020 OVC030 620202 QNH3016INS TX00/2915Z TNM01/2903Z